Terminal Aerodrome Forecast
Issued by NWS

Home | Current Version | Previous Version | Text Only | Print | Product List | Glossary On
Versions: 1 2 3 4 5 6 7 8 9 10 11 12 13 14
363
FTUS45 KABQ 290527
TAFLVS
TAF
KLVS 290527Z 2906/3006 03010KT P6SM VCSH OVC015
      TEMPO 2906/2910 5SM -RA OVC009
     FM291000 05006KT P6SM OVC020
     FM291700 25011KT P6SM OVC035
     FM292000 25017G27KT P6SM VCSH BKN060
     FM300200 02008KT P6SM OVC040=

USA.gov is the U.S. government's official web portal to all federal, state and local government web resources and services.